createdAt,value
2023-04-11T00:00:21.216Z,148.95
2023-04-11T00:02:49.495Z,147.73
2023-04-11T00:05:17.734Z,137.98
2023-04-11T00:07:46.020Z,144.45
2023-04-11T00:10:14.138Z,245.18
2023-04-11T00:12:42.406Z,225.73
2023-04-11T00:15:11.023Z,100.07
2023-04-11T00:17:39.565Z,81.55
2023-04-11T00:20:08.547Z,78.05
2023-04-11T00:22:36.802Z,35.88
2023-04-11T00:25:05.606Z,43.10
2023-04-11T00:27:33.665Z,39.78
2023-04-11T00:30:01.864Z,48.50
2023-04-11T00:32:30.305Z,57.20
2023-04-11T00:34:58.588Z,46.45
2023-04-11T00:37:27.057Z,39.03
2023-04-11T00:39:56.828Z,42.58
2023-04-11T00:42:25.283Z,42.63
2023-04-11T00:44:53.529Z,35.42
2023-04-11T00:47:21.967Z,30.70
2023-04-11T00:49:56.347Z,41.42
2023-04-11T00:52:25.103Z,37.08
2023-04-11T00:54:53.387Z,21.95
2023-04-11T00:57:22.923Z,18.35
2023-04-11T00:59:51.097Z,22.40
2023-04-11T01:02:19.428Z,16.45
2023-04-11T01:04:48.062Z,20.05
2023-04-11T01:07:18.129Z,26.98
2023-04-11T01:09:47.933Z,24.15
2023-04-11T01:12:17.818Z,20.20
2023-04-11T01:14:46.268Z,19.60
2023-04-11T01:17:15.059Z,24.60
2023-04-11T01:19:44.164Z,27.80
2023-04-11T01:22:13.852Z,25.48
2023-04-11T01:24:42.325Z,26.17
2023-04-11T01:27:10.706Z,24.75
2023-04-11T01:29:39.158Z,29.95
2023-04-11T01:32:07.715Z,25.00
2023-04-11T01:34:38.553Z,25.65
2023-04-11T01:37:07.177Z,20.48
2023-04-11T01:39:35.414Z,24.38
2023-04-11T01:42:05.102Z,32.38
2023-04-11T01:44:33.703Z,28.30
2023-04-11T01:47:05.126Z,34.13
2023-04-11T01:49:33.281Z,35.40
2023-04-11T01:52:01.493Z,49.72
2023-04-11T01:54:29.867Z,47.38
2023-04-11T01:56:59.163Z,60.88
2023-04-11T01:59:28.823Z,64.78
2023-04-11T02:01:57.140Z,71.47
2023-04-11T02:04:25.467Z,70.68
2023-04-11T02:06:53.946Z,58.35
2023-04-11T02:09:22.201Z,70.20
2023-04-11T02:11:50.361Z,90.38
2023-04-11T02:14:20.955Z,78.47
2023-04-11T02:16:57.208Z,64.45
2023-04-11T02:19:25.426Z,79.57
2023-04-11T02:21:53.680Z,91.28
2023-04-11T02:24:21.813Z,74.72
2023-04-11T02:26:50.013Z,71.55
2023-04-11T02:29:18.728Z,77.97
2023-04-11T02:31:49.767Z,73.88
2023-04-11T02:34:18.830Z,82.20
2023-04-11T02:36:47.351Z,86.55
2023-04-11T02:39:16.147Z,82.03
2023-04-11T02:41:44.401Z,78.70
2023-04-11T02:44:12.920Z,88.80
2023-04-11T02:46:42.626Z,81.97
2023-04-11T02:49:11.552Z,77.20
2023-04-11T02:51:39.720Z,82.88
2023-04-11T02:54:08.153Z,81.90
2023-04-11T02:56:38.323Z,92.80
2023-04-11T02:59:07.211Z,83.97
2023-04-11T03:01:36.381Z,70.40
2023-04-11T03:04:05.008Z,91.32
2023-04-11T03:06:54.243Z,72.00
2023-04-11T03:09:22.912Z,84.35
2023-04-11T03:11:51.567Z,74.72
2023-04-11T03:14:19.640Z,84.35
2023-04-11T03:16:47.942Z,82.10
2023-04-11T03:19:16.369Z,89.30
2023-04-11T03:21:45.204Z,70.90
2023-04-11T03:24:13.771Z,76.50
2023-04-11T03:26:43.443Z,76.68
2023-04-11T03:32:00.563Z,82.25
2023-04-11T03:34:32.628Z,85.38
2023-04-11T03:37:01.563Z,61.25
2023-04-11T03:39:29.824Z,67.80
2023-04-11T03:42:00.341Z,61.97
2023-04-11T03:44:29.107Z,64.53
2023-04-11T03:46:58.612Z,75.93
2023-04-11T03:49:33.139Z,69.15
2023-04-11T03:52:01.716Z,82.50
2023-04-11T03:54:30.954Z,85.82
2023-04-11T03:56:59.480Z,90.90
2023-04-11T03:59:29.889Z,78.93
2023-04-11T04:02:02.753Z,86.80
2023-04-11T04:04:35.492Z,79.13
2023-04-11T04:07:19.537Z,94.15
2023-04-11T04:09:48.381Z,66.05
2023-04-11T04:12:17.175Z,67.47
2023-04-11T04:15:09.322Z,69.93
2023-04-11T04:17:38.067Z,75.32
2023-04-11T04:20:11.992Z,70.30
2023-04-11T04:22:42.035Z,76.70
2023-04-11T04:25:11.113Z,73.95
2023-04-11T04:27:39.992Z,71.78
2023-04-11T04:30:09.405Z,72.97
2023-04-11T04:32:52.990Z,76.82
2023-04-11T04:35:21.896Z,68.50
2023-04-11T04:37:50.377Z,87.32
2023-04-11T04:40:36.680Z,76.50
2023-04-11T04:43:07.378Z,75.07
2023-04-11T04:45:55.730Z,80.07
2023-04-11T04:48:28.766Z,80.45
2023-04-11T04:50:57.161Z,80.10
2023-04-11T04:53:25.375Z,75.00
2023-04-11T04:55:59.802Z,81.53
2023-04-11T04:58:30.596Z,81.60
2023-04-11T05:01:02.737Z,77.50
2023-04-11T05:03:34.159Z,71.30
2023-04-11T05:06:03.422Z,83.15
2023-04-11T05:08:32.985Z,68.60
2023-04-11T05:11:03.874Z,77.97
2023-04-11T05:13:35.217Z,73.75
2023-04-11T05:16:04.855Z,77.53
2023-04-11T05:18:33.278Z,81.07
2023-04-11T05:21:02.290Z,84.95
2023-04-11T05:23:36.352Z,76.05
2023-04-11T05:26:04.809Z,82.88
2023-04-11T05:28:35.536Z,78.05
2023-04-11T05:31:08.951Z,87.80
2023-04-11T05:33:37.599Z,74.60
2023-04-11T05:36:08.093Z,82.40
2023-04-11T05:38:36.262Z,98.65
2023-04-11T05:41:04.742Z,89.50
2023-04-11T05:43:33.029Z,99.57
2023-04-11T05:46:02.820Z,86.25
2023-04-11T05:48:31.440Z,80.57
2023-04-11T05:51:00.210Z,80.53
2023-04-11T05:53:28.529Z,75.97
2023-04-11T05:55:56.812Z,92.65
2023-04-11T05:58:25.743Z,78.80
2023-04-11T06:00:53.919Z,94.82
2023-04-11T06:03:22.385Z,87.35
2023-04-11T06:05:50.760Z,79.72
2023-04-11T06:08:19.031Z,82.30
2023-04-11T06:10:47.469Z,81.18
2023-04-11T06:13:15.779Z,80.70
2023-04-11T06:15:44.195Z,86.53
2023-04-11T06:18:12.359Z,96.53
2023-04-11T06:20:40.660Z,88.07
2023-04-11T06:23:08.941Z,81.88
2023-04-11T06:25:37.283Z,93.43
2023-04-11T06:28:05.503Z,93.55
2023-04-11T06:30:33.711Z,95.22
2023-04-11T06:33:02.131Z,87.45
2023-04-11T06:35:30.481Z,91.30
2023-04-11T06:37:58.738Z,98.30
2023-04-11T06:40:26.934Z,89.28
2023-04-11T06:42:55.180Z,100.63
2023-04-11T06:45:23.590Z,100.25
2023-04-11T06:47:51.688Z,88.38
2023-04-11T06:50:20.054Z,103.65
2023-04-11T06:52:48.231Z,105.10
2023-04-11T06:55:16.672Z,103.78
2023-04-11T06:57:45.062Z,97.82
2023-04-11T07:00:13.786Z,107.22
2023-04-11T07:02:42.288Z,99.43
2023-04-11T07:05:10.764Z,75.80
2023-04-11T07:07:38.912Z,85.15
2023-04-11T07:10:07.734Z,106.03
2023-04-11T07:12:36.040Z,86.38
2023-04-11T07:15:04.894Z,87.70
2023-04-11T07:17:33.011Z,84.70
2023-04-11T07:20:01.248Z,100.10
2023-04-11T07:22:29.438Z,103.20
2023-04-11T07:24:57.871Z,91.40
2023-04-11T07:27:25.897Z,68.90
2023-04-11T07:29:54.171Z,79.43
2023-04-11T07:32:22.419Z,86.63
2023-04-11T07:34:50.800Z,91.90
2023-04-11T07:37:19.082Z,80.68
2023-04-11T07:39:47.198Z,95.63
2023-04-11T07:42:15.542Z,87.05
2023-04-11T07:44:43.853Z,87.10
2023-04-11T07:47:12.106Z,77.15
2023-04-11T07:49:40.330Z,87.82
2023-04-11T07:52:08.560Z,89.40
2023-04-11T07:54:36.894Z,92.80
2023-04-11T08:02:00.001Z,85.70
2023-04-11T08:04:32.646Z,76.05
2023-04-11T08:07:01.128Z,88.00
2023-04-11T08:09:29.258Z,84.80
2023-04-11T08:11:57.555Z,80.90
2023-04-11T08:14:26.157Z,69.95
2023-04-11T08:16:54.761Z,78.32
2023-04-11T08:19:23.109Z,71.95
2023-04-11T08:21:51.461Z,62.55
2023-04-11T08:24:20.161Z,90.45
2023-04-11T08:26:48.445Z,79.25
2023-04-11T08:29:16.933Z,63.40
2023-04-11T08:31:45.882Z,69.20
2023-04-11T08:34:14.210Z,78.20
2023-04-11T08:36:42.382Z,64.45
2023-04-11T08:39:10.620Z,63.53
2023-04-11T08:41:40.180Z,77.20
2023-04-11T08:44:11.902Z,51.42
2023-04-11T08:46:43.170Z,89.45
2023-04-11T08:49:12.057Z,145.40
2023-04-11T08:51:44.351Z,87.55
2023-04-11T08:54:12.932Z,69.38
2023-04-11T08:56:42.840Z,61.00
2023-04-11T08:59:10.975Z,79.22
2023-04-11T09:01:39.189Z,87.05
2023-04-11T09:04:07.510Z,141.85
2023-04-11T09:06:35.724Z,103.78
2023-04-11T09:09:05.367Z,134.40
2023-04-11T09:11:52.940Z,85.03
2023-04-11T09:14:25.936Z,100.20
2023-04-11T09:16:59.167Z,90.80
2023-04-11T09:19:32.263Z,85.68
2023-04-11T09:22:02.842Z,95.45
2023-04-11T09:24:33.370Z,88.75
2023-04-11T09:27:13.543Z,80.00
2023-04-11T09:29:49.267Z,73.10
2023-04-11T09:32:34.311Z,183.02
2023-04-11T09:35:13.754Z,90.93
2023-04-11T09:37:47.863Z,96.25
2023-04-11T09:40:18.438Z,84.10
2023-04-11T09:42:48.093Z,57.75
2023-04-11T09:45:24.364Z,110.55
2023-04-11T09:47:56.488Z,120.38
2023-04-11T09:50:26.572Z,113.75
2023-04-11T09:52:56.483Z,84.20
2023-04-11T09:57:55.563Z,53.20
2023-04-11T10:00:25.970Z,78.95
2023-04-11T10:02:54.626Z,62.47
2023-04-11T10:05:27.577Z,65.75
2023-04-11T10:08:09.351Z,69.32
2023-04-11T10:10:38.084Z,83.65
2023-04-11T10:13:39.298Z,60.28
2023-04-11T10:16:07.858Z,69.15
2023-04-11T10:18:37.081Z,65.15
2023-04-11T10:21:25.876Z,49.92
2023-04-11T10:24:16.358Z,67.28
2023-04-11T10:26:49.348Z,49.97
2023-04-11T10:29:31.024Z,49.65
2023-04-11T10:32:18.773Z,50.03
2023-04-11T10:34:55.912Z,56.78
2023-04-11T10:37:37.657Z,47.05
2023-04-11T10:40:09.435Z,55.97
2023-04-11T10:42:43.844Z,60.17
2023-04-11T10:45:28.392Z,70.88
2023-04-11T10:48:12.123Z,51.40
2023-04-11T10:50:42.576Z,56.92
2023-04-11T10:53:31.929Z,49.50
2023-04-11T10:56:01.952Z,40.85
2023-04-11T10:58:40.312Z,51.53
2023-04-11T11:01:31.273Z,53.88
2023-04-11T11:04:06.129Z,55.97
2023-04-11T11:06:46.077Z,50.67
2023-04-11T11:09:22.409Z,45.28
2023-04-11T11:12:07.615Z,43.28
2023-04-11T11:14:36.550Z,52.35
2023-04-11T11:17:05.099Z,48.80
2023-04-11T11:19:34.402Z,58.17
2023-04-11T11:22:14.677Z,55.08
2023-04-11T11:24:42.846Z,45.83
2023-04-11T11:27:24.840Z,36.08
2023-04-11T11:29:53.766Z,43.30
2023-04-11T11:32:27.013Z,53.33
2023-04-11T11:34:55.682Z,40.10
2023-04-11T11:37:23.958Z,44.63
2023-04-11T11:39:52.725Z,49.35
2023-04-11T11:42:21.458Z,44.95
2023-04-11T11:44:49.807Z,68.28
2023-04-11T11:47:18.193Z,47.30
2023-04-11T11:49:58.305Z,49.20
2023-04-11T11:52:34.306Z,50.20
2023-04-11T11:58:01.050Z,53.70
2023-04-11T12:00:31.568Z,50.80
2023-04-11T12:03:00.868Z,58.33
2023-04-11T12:05:31.365Z,53.42
2023-04-11T12:08:02.761Z,41.95
2023-04-11T12:10:41.969Z,44.83
2023-04-11T12:13:24.883Z,52.83
2023-04-11T12:15:57.274Z,73.10
2023-04-11T12:18:27.612Z,44.97
2023-04-11T12:20:56.261Z,40.17
2023-04-11T12:23:24.506Z,40.60
2023-04-11T12:25:52.849Z,46.70
2023-04-11T12:28:21.064Z,45.30
2023-04-11T12:30:49.285Z,40.17
2023-04-11T12:33:17.471Z,39.50
2023-04-11T12:35:45.739Z,43.65
2023-04-11T12:38:17.335Z,41.08
2023-04-11T12:40:46.855Z,40.70
2023-04-11T12:43:15.136Z,41.15
2023-04-11T12:45:43.422Z,38.75
2023-04-11T12:48:13.659Z,40.72
2023-04-11T12:50:41.898Z,50.85
2023-04-11T12:53:10.339Z,40.42
2023-04-11T12:55:38.485Z,40.33
2023-04-11T12:58:07.201Z,41.55
2023-04-11T13:00:35.932Z,55.63
2023-04-11T13:03:04.718Z,34.08
2023-04-11T13:05:33.337Z,41.72
2023-04-11T13:08:01.561Z,48.15
2023-04-11T13:10:29.903Z,44.30
2023-04-11T13:13:00.653Z,36.83
2023-04-11T13:15:34.058Z,43.28
2023-04-11T13:18:02.378Z,42.60
2023-04-11T13:20:30.765Z,32.70
2023-04-11T13:22:59.063Z,44.40
2023-04-11T13:25:27.332Z,34.47
2023-04-11T13:27:55.638Z,33.47
2023-04-11T13:30:23.875Z,37.75
2023-04-11T13:32:52.306Z,41.83
2023-04-11T13:35:20.608Z,41.22
2023-04-11T13:37:48.855Z,36.63
2023-04-11T13:40:17.057Z,44.72
2023-04-11T13:42:45.242Z,28.70
2023-04-11T13:45:13.530Z,43.08
2023-04-11T13:47:41.697Z,36.47
2023-04-11T13:50:10.070Z,43.95
2023-04-11T13:52:38.425Z,40.22
2023-04-11T13:55:08.076Z,39.08
2023-04-11T13:57:36.446Z,48.53
2023-04-11T14:00:05.468Z,37.92
2023-04-11T14:02:33.965Z,38.00
2023-04-11T14:05:02.268Z,32.83
2023-04-11T14:07:30.419Z,47.95
2023-04-11T14:09:58.717Z,37.25
2023-04-11T14:12:27.574Z,40.05
2023-04-11T14:14:55.837Z,41.58
2023-04-11T14:17:24.290Z,57.47
2023-04-11T14:19:52.593Z,42.92
2023-04-11T14:22:21.359Z,35.55
2023-04-11T14:24:49.575Z,42.58
2023-04-11T14:27:18.158Z,46.72
2023-04-11T14:29:46.430Z,42.33
2023-04-11T14:32:14.633Z,43.45
2023-04-11T14:34:42.888Z,45.22
2023-04-11T14:37:11.123Z,37.35
2023-04-11T14:39:39.451Z,39.13
2023-04-11T14:42:07.694Z,51.58
2023-04-11T14:44:36.377Z,34.05
2023-04-11T14:47:04.753Z,47.85
2023-04-11T14:49:32.974Z,43.97
2023-04-11T14:52:01.370Z,42.65
2023-04-11T14:54:29.882Z,30.08
2023-04-11T14:56:58.027Z,45.33
2023-04-11T14:59:26.403Z,45.75
2023-04-11T15:01:54.886Z,37.88
2023-04-11T15:04:23.298Z,44.15
2023-04-11T15:06:51.695Z,40.60
2023-04-11T15:09:19.899Z,35.80
2023-04-11T15:11:48.629Z,43.63
2023-04-11T15:14:16.764Z,39.88
2023-04-11T15:16:44.965Z,45.55
2023-04-11T15:19:13.237Z,42.60
2023-04-11T15:21:41.387Z,43.80
2023-04-11T15:24:09.590Z,33.50
2023-04-11T15:26:37.791Z,48.17
2023-04-11T15:29:06.548Z,33.40
2023-04-11T15:31:34.770Z,36.30
2023-04-11T15:34:03.011Z,43.92
2023-04-11T15:36:31.305Z,42.35
2023-04-11T15:38:59.535Z,71.97
2023-04-11T15:41:27.930Z,36.17
2023-04-11T15:43:56.369Z,42.08
2023-04-11T15:46:25.350Z,49.97
2023-04-11T15:48:53.995Z,66.60
2023-04-11T15:51:22.727Z,99.50
2023-04-11T15:53:51.041Z,70.03
2023-04-11T15:56:20.058Z,86.45
2023-04-11T15:58:49.483Z,48.92
2023-04-11T16:01:21.942Z,43.60
2023-04-11T16:03:50.725Z,41.90
2023-04-11T16:06:19.094Z,98.10
2023-04-11T16:08:47.260Z,97.05
2023-04-11T16:11:15.411Z,63.83
2023-04-11T16:13:43.549Z,61.00
2023-04-11T16:16:11.930Z,60.15
2023-04-11T16:18:40.024Z,72.00
2023-04-11T16:21:17.362Z,65.63
2023-04-11T16:23:45.631Z,42.17
2023-04-11T16:26:13.859Z,64.05
2023-04-11T16:28:42.238Z,42.65
2023-04-11T16:31:10.540Z,58.78
2023-04-11T16:33:38.675Z,48.58
2023-04-11T16:36:07.344Z,61.20
2023-04-11T16:38:35.617Z,56.38
2023-04-11T16:41:03.781Z,73.00
2023-04-11T16:43:32.118Z,51.42
2023-04-11T16:46:00.557Z,41.10
2023-04-11T16:48:28.983Z,66.22
2023-04-11T16:50:57.207Z,76.38
2023-04-11T16:53:25.459Z,51.22
2023-04-11T16:55:53.699Z,43.70
2023-04-11T16:58:22.028Z,50.97
2023-04-11T17:00:50.392Z,34.45
2023-04-11T17:03:19.008Z,28.90
2023-04-11T17:05:47.187Z,44.80
2023-04-11T17:08:15.527Z,47.55
2023-04-11T17:10:43.743Z,37.90
2023-04-11T17:13:12.202Z,48.28
2023-04-11T17:15:40.326Z,67.35
2023-04-11T17:18:08.700Z,73.63
2023-04-11T17:20:36.995Z,37.17
2023-04-11T17:23:05.258Z,56.90
2023-04-11T17:25:33.515Z,46.75
2023-04-11T17:28:01.893Z,53.05
2023-04-11T17:30:30.869Z,86.97
2023-04-11T17:32:59.833Z,84.03
2023-04-11T17:35:29.094Z,40.58
2023-04-11T17:37:58.636Z,42.67
2023-04-11T17:40:26.831Z,52.25
2023-04-11T17:42:55.184Z,55.05
2023-04-11T17:45:23.260Z,58.70
2023-04-11T17:47:54.445Z,52.28
2023-04-11T17:50:22.659Z,77.45
2023-04-11T17:52:51.524Z,84.30
2023-04-11T17:55:19.994Z,92.13
2023-04-11T17:57:48.787Z,83.95
2023-04-11T18:00:20.115Z,61.65
2023-04-11T18:02:50.262Z,75.60
2023-04-11T18:05:24.629Z,90.28
2023-04-11T18:07:57.244Z,67.82
2023-04-11T18:12:59.450Z,109.82
2023-04-11T18:15:28.201Z,93.78
2023-04-11T18:17:59.910Z,76.13
2023-04-11T18:20:28.673Z,90.35
2023-04-11T18:22:57.109Z,69.00
2023-04-11T18:25:25.235Z,63.58
2023-04-11T18:27:53.579Z,70.45
2023-04-11T18:30:21.691Z,59.30
2023-04-11T18:32:50.870Z,52.80
2023-04-11T18:35:19.439Z,67.72
2023-04-11T18:37:47.939Z,65.68
2023-04-11T18:40:16.943Z,58.88
2023-04-11T18:42:49.497Z,74.97
2023-04-11T18:45:18.619Z,59.10
2023-04-11T18:47:46.804Z,45.47
2023-04-11T18:50:16.003Z,65.43
2023-04-11T18:52:45.477Z,77.18
2023-04-11T18:55:14.848Z,91.32
2023-04-11T18:57:44.643Z,96.30
2023-04-11T19:00:18.433Z,105.90
2023-04-11T19:02:48.105Z,96.75
2023-04-11T19:05:17.549Z,104.10
2023-04-11T19:07:46.173Z,70.07
2023-04-11T19:10:14.436Z,77.32
2023-04-11T19:12:42.794Z,77.63
2023-04-11T19:15:11.458Z,69.68
2023-04-11T19:17:39.831Z,94.68
2023-04-11T19:20:08.701Z,64.38
2023-04-11T19:22:36.878Z,88.22
2023-04-11T19:25:05.457Z,93.55
2023-04-11T19:27:33.722Z,110.25
2023-04-11T19:30:01.889Z,74.65
2023-04-11T19:32:30.082Z,84.97
2023-04-11T19:34:58.438Z,107.07
2023-04-11T19:37:26.508Z,88.97
2023-04-11T19:39:54.739Z,71.00
2023-04-11T19:42:23.067Z,65.65
2023-04-11T19:44:51.188Z,51.47
2023-04-11T19:47:19.605Z,52.33
2023-04-11T19:49:47.883Z,66.85
2023-04-11T19:52:16.312Z,93.22
2023-04-11T19:54:44.522Z,72.00
2023-04-11T19:57:12.760Z,85.90
2023-04-11T19:59:41.068Z,75.38
2023-04-11T20:02:09.393Z,102.20
2023-04-11T20:04:37.651Z,87.50
2023-04-11T20:07:06.149Z,96.97
2023-04-11T20:09:34.287Z,82.63
2023-04-11T20:12:02.642Z,60.30
2023-04-11T20:14:30.868Z,77.55
2023-04-11T20:16:58.991Z,72.53
2023-04-11T20:19:30.250Z,63.20
2023-04-11T20:21:58.478Z,68.97
2023-04-11T20:24:26.834Z,58.47
2023-04-11T20:26:55.884Z,66.25
2023-04-11T20:29:24.102Z,95.43
2023-04-11T20:31:52.353Z,63.63
2023-04-11T20:34:20.563Z,84.90
2023-04-11T20:36:49.005Z,71.93
2023-04-11T20:39:17.170Z,63.80
2023-04-11T20:41:45.354Z,68.97
2023-04-11T20:44:13.919Z,87.65
2023-04-11T20:46:42.173Z,62.03
2023-04-11T20:49:10.542Z,62.33
2023-04-11T20:51:38.762Z,53.15
2023-04-11T20:54:06.998Z,52.00
2023-04-11T20:56:35.280Z,64.97
2023-04-11T20:59:04.136Z,55.00
2023-04-11T21:01:32.529Z,49.22
2023-04-11T21:04:02.022Z,47.67
2023-04-11T21:06:31.814Z,62.70
2023-04-11T21:09:03.314Z,63.13
2023-04-11T21:12:02.210Z,51.72
2023-04-11T21:14:30.462Z,51.88
2023-04-11T21:16:58.560Z,49.55
2023-04-11T21:19:26.965Z,53.22
2023-04-11T21:21:55.141Z,56.28
2023-04-11T21:24:23.344Z,64.88
2023-04-11T21:26:51.536Z,57.65
2023-04-11T21:29:19.918Z,58.42
2023-04-11T21:31:48.131Z,48.67
2023-04-11T21:34:16.509Z,42.30
2023-04-11T21:36:44.740Z,56.47
2023-04-11T21:39:13.030Z,44.28
2023-04-11T21:41:41.237Z,52.20
2023-04-11T21:44:09.534Z,41.90
2023-04-11T21:46:37.724Z,58.92
2023-04-11T21:49:06.094Z,82.93
2023-04-11T21:51:34.141Z,71.53
2023-04-11T21:54:04.606Z,61.10
2023-04-11T21:56:32.974Z,46.03
2023-04-11T21:59:01.119Z,55.60
2023-04-11T22:01:29.354Z,47.95
2023-04-11T22:03:57.873Z,55.95
2023-04-11T22:06:26.758Z,82.88
2023-04-11T22:08:54.831Z,120.30
2023-04-11T22:11:23.137Z,155.82
2023-04-11T22:13:51.662Z,135.80
2023-04-11T22:16:20.307Z,150.98
2023-04-11T22:18:48.466Z,98.13
2023-04-11T22:21:20.859Z,51.28
2023-04-11T22:23:53.864Z,120.20
2023-04-11T22:26:27.066Z,107.55
2023-04-11T22:28:58.377Z,124.00
2023-04-11T22:31:26.732Z,130.63
2023-04-11T22:33:55.145Z,110.55
2023-04-11T22:36:23.900Z,105.65
2023-04-11T22:38:52.111Z,65.75
2023-04-11T22:41:20.287Z,39.08
2023-04-11T22:43:48.480Z,31.85
2023-04-11T22:46:16.758Z,32.85
2023-04-11T22:48:46.861Z,39.30
2023-04-11T22:51:15.069Z,33.05
2023-04-11T22:53:43.368Z,38.03
2023-04-11T22:56:12.016Z,36.47
2023-04-11T22:58:40.108Z,46.67
2023-04-11T23:01:12.597Z,39.10
2023-04-11T23:03:41.916Z,42.83
2023-04-11T23:06:10.911Z,40.22
2023-04-11T23:08:39.095Z,46.10
2023-04-11T23:11:07.768Z,58.17
2023-04-11T23:13:36.147Z,43.47
2023-04-11T23:16:04.507Z,50.38
2023-04-11T23:18:32.704Z,37.97
2023-04-11T23:21:00.893Z,35.50
2023-04-11T23:23:29.288Z,21.20
2023-04-11T23:25:57.484Z,25.95
2023-04-11T23:28:25.671Z,30.58
2023-04-11T23:30:55.236Z,22.33
2023-04-11T23:34:37.832Z,26.77
2023-04-11T23:37:06.127Z,32.17
2023-04-11T23:39:34.259Z,30.15
2023-04-11T23:45:11.380Z,29.30
2023-04-11T23:47:39.552Z,33.40
2023-04-11T23:50:08.836Z,34.05
2023-04-11T23:54:00.722Z,31.67
2023-04-11T23:56:29.098Z,27.88
2023-04-11T23:58:57.256Z,21.75
